Time;durP1;ratioP1;P1;durP2;ratioP2;P2;SDS_P1;SDS_P2;PMS_P1;PMS_P2;Temp;Humidity;BMP_temperature;BMP_pressure;BME280_temperature;BME280_humidity;BME280_pressure;Samples;Min_cycle;Max_cycle;Signal;HPM_P1;HPM_P2
2022/01/30 00:01:55;;;;;;;;;;;;;;;9.97;39.84;99104.91;4495952;31;33359;-86
2022/01/30 00:04:25;;;;;;;;;;;;;;;10.05;40.06;99111.06;4498970;31;34231;-86
2022/01/30 00:06:53;;;;;;;;;;;;;;;8.67;42.85;99107.88;4499614;31;34146;-86
2022/01/30 00:09:22;;;;;;;;;;;;;;;9.67;41.87;99107.91;4500457;31;34254;-87
2022/01/30 00:11:57;;;;;;;;;;;;;;;9.95;41.50;99106.59;4499874;31;33700;-85
2022/01/30 00:14:27;;;;;;;;;;;;;;;10.53;40.49;99104.81;4495278;31;33647;-83
2022/01/30 00:17:01;;;;;;;;;;;;;;;10.33;41.62;99095.91;4489369;31;34137;-84
2022/01/30 00:20:16;;;;;;;;;;;;;;;10.74;40.66;99085.16;4499579;31;34513;-83
2022/01/30 00:22:34;;;;;;;;;;;;;;;10.07;42.86;99088.63;4479453;31;34075;-83
2022/01/30 00:25:07;;;;;;;;;;;;;;;10.37;42.37;99076.94;4483906;31;34847;-84
2022/01/30 00:27:47;;;;;;;;;;;;;;;9.99;42.69;99069.53;4483880;32;35230;-83
2022/01/30 00:30:15;;;;;;;;;;;;;;;10.88;40.87;99070.63;4484582;31;34389;-84
2022/01/30 00:32:43;;;;;;;;;;;;;;;10.75;40.93;99048.84;4489971;31;33636;-86
2022/01/30 00:35:33;;;;;;;;;;;;;;;9.96;42.26;99041.91;4484057;31;34129;-83
2022/01/30 00:38:00;;;;;;;;;;;;;;;10.56;41.34;99032.25;4469995;32;34350;-85
2022/01/30 00:40:35;;;;;;;;;;;;;;;10.36;41.39;99023.41;4488120;31;33917;-84
2022/01/30 00:43:04;;;;;;;;;;;;;;;10.91;40.28;99011.88;4500017;31;32931;-84
2022/01/30 00:45:32;;;;;;;;;;;;;;;10.70;40.37;99004.75;4489222;31;34297;-85
2022/01/30 00:48:00;;;;;;;;;;;;;;;10.75;40.47;98991.81;4499456;31;33930;-84
2022/01/30 00:50:27;;;;;;;;;;;;;;;9.97;41.70;99014.28;4499473;31;35019;-83
2022/01/30 00:52:55;;;;;;;;;;;;;;;10.42;40.91;99007.94;4485371;31;33347;-85
2022/01/30 00:55:22;;;;;;;;;;;;;;;10.07;40.99;98997.09;4486412;31;34159;-85
2022/01/30 00:57:52;;;;;;;;;;;;;;;9.74;41.61;99001.87;4499613;31;35052;-85
2022/01/30 01:00:19;;;;;;;;;;;;;;;9.96;41.41;98991.78;4500512;31;34345;-85
2022/01/30 01:02:46;;;;;;;;;;;;;;;10.26;40.97;98974.91;4507625;31;33455;-84
2022/01/30 01:05:14;;;;;;;;;;;;;;;10.24;40.81;98985.22;4512345;31;34326;-85
2022/01/30 01:07:46;;;;;;;;;;;;;;;10.09;41.50;98993.69;4515237;31;35828;-85
2022/01/30 01:23:21;;;;;;;;;;;;;;;9.62;42.56;98965.50;4515635;31;34490;-83
2022/01/30 01:23:49;;;;;;;;;;;;;;;9.38;42.72;98957.37;4511795;31;33572;-84
2022/01/30 01:26:16;;;;;;;;;;;;;;;9.14;43.62;98960.50;4499234;31;33820;-85
2022/01/30 01:28:44;;;;;;;;;;;;;;;9.01;43.42;98954.25;4498984;31;34450;-84
2022/01/30 01:31:11;;;;;;;;;;;;;;;9.29;43.26;98954.69;4499935;31;34412;-84
2022/01/30 01:34:06;;;;;;;;;;;;;;;9.09;43.50;98950.09;4500470;31;33292;-85
2022/01/30 01:36:31;;;;;;;;;;;;;;;8.93;44.13;98937.75;4514825;31;33982;-84
2022/01/30 01:38:59;;;;;;;;;;;;;;;9.08;43.63;98930.22;4514710;31;34033;-83
2022/01/30 01:41:28;;;;;;;;;;;;;;;9.78;42.28;98930.31;4515069;31;34938;-85
2022/01/30 01:43:56;;;;;;;;;;;;;;;9.79;42.28;98920.81;4510548;31;32973;-83
2022/01/30 01:46:31;;;;;;;;;;;;;;;9.95;41.61;98918.41;4499766;31;33677;-85
2022/01/30 01:48:59;;;;;;;;;;;;;;;10.70;40.26;98906.22;4514978;31;35388;-85
2022/01/30 01:51:30;;;;;;;;;;;;;;;10.10;41.88;98897.00;4514607;31;35169;-85
2022/01/30 01:53:57;;;;;;;;;;;;;;;9.79;41.68;98900.97;4508761;31;33098;-86
2022/01/30 01:56:25;;;;;;;;;;;;;;;10.68;40.85;98892.41;4505213;31;33886;-85
2022/01/30 01:58:53;;;;;;;;;;;;;;;10.67;41.00;98889.78;4514993;31;34054;-86
2022/01/30 02:01:23;;;;;;;;;;;;;;;11.08;40.01;98892.66;4515012;31;34065;-87
2022/01/30 02:03:51;;;;;;;;;;;;;;;10.82;40.80;98889.03;4513109;31;34386;-86
2022/01/30 02:06:21;;;;;;;;;;;;;;;10.95;40.20;98890.84;4513336;31;34698;-86
2022/01/30 02:08:56;;;;;;;;;;;;;;;10.44;40.57;98879.22;4512132;31;34661;-86
2022/01/30 02:11:35;;;;;;;;;;;;;;;10.44;40.93;98876.62;4513631;31;34941;-86
2022/01/30 02:27:27;;;;;;;;;;;;;;;9.37;43.09;98847.00;4503651;31;35050;-86
2022/01/30 02:29:57;;;;;;;;;;;;;;;9.74;42.34;98845.69;4507781;31;34534;-86
2022/01/30 02:32:25;;;;;;;;;;;;;;;10.13;41.70;98837.44;4498429;31;34265;-86
2022/01/30 02:34:52;;;;;;;;;;;;;;;10.01;42.01;98839.94;4506386;31;34141;-86
2022/01/30 02:37:20;;;;;;;;;;;;;;;9.94;42.47;98826.06;4509783;31;34941;-87
2022/01/30 02:39:47;;;;;;;;;;;;;;;8.97;44.60;98828.34;4498332;31;35168;-86
2022/01/30 02:42:19;;;;;;;;;;;;;;;9.70;43.46;98821.50;4500400;31;33905;-84
2022/01/30 02:44:56;;;;;;;;;;;;;;;8.96;45.45;98811.97;4507418;31;33443;-86
2022/01/30 02:47:56;;;;;;;;;;;;;;;8.35;47.10;98795.56;4510993;31;34892;-86
2022/01/30 02:52:44;;;;;;;;;;;;;;;8.46;48.13;98786.28;4516299;31;34191;-86
2022/01/30 02:55:11;;;;;;;;;;;;;;;8.72;47.82;98786.66;4514667;31;33453;-86
2022/01/30 02:57:39;;;;;;;;;;;;;;;8.31;49.63;98798.06;4503821;31;34852;-86
2022/01/30 03:00:08;;;;;;;;;;;;;;;8.61;48.75;98788.22;4500612;31;34930;-86
2022/01/30 03:02:35;;;;;;;;;;;;;;;8.60;49.09;98796.84;4500374;31;34605;-86
2022/01/30 03:05:03;;;;;;;;;;;;;;;8.45;49.16;98787.13;4499996;31;34417;-87
2022/01/30 03:07:30;;;;;;;;;;;;;;;9.63;46.75;98778.28;4500538;31;35090;-86
2022/01/30 03:09:57;;;;;;;;;;;;;;;10.13;45.49;98767.50;4500243;31;34256;-86
2022/01/30 03:12:25;;;;;;;;;;;;;;;9.87;46.20;98771.59;4500229;31;34107;-86
2022/01/30 03:14:52;;;;;;;;;;;;;;;10.15;45.74;98781.37;4500334;31;34043;-86
2022/01/30 03:17:19;;;;;;;;;;;;;;;9.01;48.98;98783.59;4499329;31;34107;-86
2022/01/30 03:19:47;;;;;;;;;;;;;;;9.12;48.66;98778.56;4499567;31;35106;-86
2022/01/30 03:22:14;;;;;;;;;;;;;;;8.91;48.98;98771.41;4500113;31;34105;-86
2022/01/30 03:24:41;;;;;;;;;;;;;;;9.40;47.57;98766.84;4499051;31;33300;-86
2022/01/30 03:27:12;;;;;;;;;;;;;;;9.96;46.58;98751.84;4500664;31;33442;-86
2022/01/30 03:29:41;;;;;;;;;;;;;;;9.31;47.76;98753.78;4500468;31;34395;-86
2022/01/30 03:32:09;;;;;;;;;;;;;;;9.50;47.90;98748.81;4501087;31;34291;-86
2022/01/30 03:34:37;;;;;;;;;;;;;;;9.14;48.68;98738.94;4499917;31;33391;-86
2022/01/30 03:37:04;;;;;;;;;;;;;;;9.06;49.27;98755.22;4500502;31;34337;-86
2022/01/30 03:39:32;;;;;;;;;;;;;;;8.86;49.68;98739.44;4500224;31;34089;-86
2022/01/30 03:41:59;;;;;;;;;;;;;;;8.64;50.66;98744.34;4498802;31;34228;-86
2022/01/30 03:44:26;;;;;;;;;;;;;;;8.73;50.54;98736.72;4505057;31;33081;-86
2022/01/30 03:46:53;;;;;;;;;;;;;;;9.33;48.94;98729.66;4514904;31;34302;-86
2022/01/30 03:49:23;;;;;;;;;;;;;;;9.14;49.56;98718.25;4499868;31;34151;-87
2022/01/30 03:51:51;;;;;;;;;;;;;;;8.47;51.18;98738.94;4500166;31;34209;-86
2022/01/30 03:54:18;;;;;;;;;;;;;;;7.74;53.17;98745.50;4505131;31;33477;-85
2022/01/30 03:56:45;;;;;;;;;;;;;;;8.16;52.04;98745.34;4503413;31;34841;-87
2022/01/30 03:59:13;;;;;;;;;;;;;;;8.39;51.23;98740.53;4500099;31;35315;-86
2022/01/30 04:01:40;;;;;;;;;;;;;;;9.02;50.21;98726.75;4499930;31;34207;-86
2022/01/30 04:04:09;;;;;;;;;;;;;;;9.31;49.20;98717.56;4500367;31;33196;-86
2022/01/30 04:06:36;;;;;;;;;;;;;;;7.45;54.10;98721.75;4506302;31;34565;-87
2022/01/30 04:09:05;;;;;;;;;;;;;;;8.35;52.09;98737.88;4514554;31;34366;-86
2022/01/30 04:11:34;;;;;;;;;;;;;;;8.62;51.09;98719.31;4515969;31;34009;-86
2022/01/30 04:14:01;;;;;;;;;;;;;;;9.42;48.72;98710.78;4505280;31;34356;-86
2022/01/30 04:16:29;;;;;;;;;;;;;;;9.19;49.67;98705.37;4505321;31;34664;-86
2022/01/30 04:18:57;;;;;;;;;;;;;;;8.05;52.75;98698.69;4515432;31;35370;-86
2022/01/30 04:21:25;;;;;;;;;;;;;;;8.35;51.95;98709.47;4515579;31;34028;-86
2022/01/30 04:23:55;;;;;;;;;;;;;;;7.94;53.22;98709.69;4514345;31;32875;-86
2022/01/30 04:26:23;;;;;;;;;;;;;;;7.63;54.52;98716.94;4504561;31;34505;-85
2022/01/30 04:28:52;;;;;;;;;;;;;;;8.23;53.11;98707.56;4515731;31;34241;-88
2022/01/30 04:31:20;;;;;;;;;;;;;;;8.03;53.87;98709.81;4515248;31;34203;-86
2022/01/30 04:33:48;;;;;;;;;;;;;;;7.78;54.57;98713.75;4515496;31;33370;-86
2022/01/30 04:36:21;;;;;;;;;;;;;;;8.52;52.54;98708.88;4503686;31;34980;-86
2022/01/30 04:52:51;;;;;;;;;;;;;;;8.20;54.28;98723.88;4513736;31;35222;-86
2022/01/30 04:56:04;;;;;;;;;;;;;;;8.21;54.43;98711.81;4506392;31;33632;-86
2022/01/30 04:58:53;;;;;;;;;;;;;;;8.92;52.33;98716.25;4499500;31;34688;-86
2022/01/30 05:01:18;;;;;;;;;;;;;;;8.95;52.30;98716.31;4498977;31;35233;-88
2022/01/30 05:06:17;;;;;;;;;;;;;;;8.61;53.16;98707.25;4509103;31;33259;-86
2022/01/30 05:08:45;;;;;;;;;;;;;;;8.78;53.09;98731.59;4499401;31;34131;-86
2022/01/30 05:11:12;;;;;;;;;;;;;;;8.72;52.94;98724.66;4499357;31;33707;-86
2022/01/30 05:13:46;;;;;;;;;;;;;;;8.95;52.21;98721.47;4499330;31;34239;-86
2022/01/30 05:16:17;;;;;;;;;;;;;;;8.70;52.77;98731.50;4508823;31;34193;-86
2022/01/30 05:18:48;;;;;;;;;;;;;;;8.85;52.60;98720.50;4506237;31;33990;-85
2022/01/30 05:21:16;;;;;;;;;;;;;;;8.35;54.16;98723.22;4501623;31;34034;-85
2022/01/30 05:23:45;;;;;;;;;;;;;;;8.50;53.47;98726.06;4498402;31;35074;-85
2022/01/30 05:26:13;;;;;;;;;;;;;;;8.14;54.67;98713.44;4507901;31;33297;-87
2022/01/30 05:28:42;;;;;;;;;;;;;;;7.28;57.43;98722.34;4499396;31;34487;-87
2022/01/30 05:31:10;;;;;;;;;;;;;;;8.58;53.94;98708.09;4499179;31;35273;-86
2022/01/30 05:33:37;;;;;;;;;;;;;;;9.00;53.00;98704.28;4499521;31;33922;-86
2022/01/30 05:36:05;;;;;;;;;;;;;;;8.50;53.93;98707.13;4509189;31;33755;-86
2022/01/30 05:38:32;;;;;;;;;;;;;;;9.09;52.65;98701.81;4499318;31;34090;-86
2022/01/30 05:41:01;;;;;;;;;;;;;;;9.68;51.11;98687.72;4499176;31;35282;-86
2022/01/30 05:43:33;;;;;;;;;;;;;;;9.07;52.49;98695.75;4499145;31;34295;-86
2022/01/30 05:46:11;;;;;;;;;;;;;;;8.43;54.60;98706.16;4508067;31;33741;-86
2022/01/30 05:48:42;;;;;;;;;;;;;;;9.36;52.20;98702.97;4499318;31;34614;-86
2022/01/30 05:51:10;;;;;;;;;;;;;;;9.43;51.48;98694.38;4499272;31;34514;-87
2022/01/30 05:53:37;;;;;;;;;;;;;;;9.69;50.56;98708.44;4507047;31;34200;-86
2022/01/30 05:56:05;;;;;;;;;;;;;;;9.12;52.32;98699.25;4512213;31;33428;-85
2022/01/30 05:58:33;;;;;;;;;;;;;;;9.08;52.41;98704.38;4497552;31;34200;-88
2022/01/30 06:01:00;;;;;;;;;;;;;;;8.90;52.86;98695.56;4505669;31;35857;-86
2022/01/30 06:03:29;;;;;;;;;;;;;;;9.19;52.34;98710.53;4513371;31;34224;-86
2022/01/30 06:05:57;;;;;;;;;;;;;;;9.35;51.72;98712.44;4512594;31;34124;-86
2022/01/30 06:11:11;;;;;;;;;;;;;;;8.65;53.71;98717.66;4514379;31;35845;-87
2022/01/30 06:13:38;;;;;;;;;;;;;;;9.57;51.39;98689.34;4512537;31;34791;-86
2022/01/30 06:16:06;;;;;;;;;;;;;;;8.46;54.03;98701.03;4513524;31;33366;-86
2022/01/30 06:18:34;;;;;;;;;;;;;;;8.78;53.45;98693.69;4514486;31;34142;-87
2022/01/30 06:21:05;;;;;;;;;;;;;;;8.82;52.86;98710.09;4512921;31;33175;-85
2022/01/30 06:23:36;;;;;;;;;;;;;;;9.33;51.69;98713.28;4504591;31;32899;-86
2022/01/30 06:26:07;;;;;;;;;;;;;;;9.65;50.54;98711.00;4501195;31;32306;-86
2022/01/30 06:28:52;;;;;;;;;;;;;;;9.08;52.33;98715.59;4507361;31;33464;-87
2022/01/30 06:31:23;;;;;;;;;;;;;;;8.67;53.62;98717.66;4510963;31;33169;-86
2022/01/30 06:33:56;;;;;;;;;;;;;;;9.24;51.88;98711.44;4498527;31;35245;-87
2022/01/30 06:36:27;;;;;;;;;;;;;;;8.91;52.68;98718.00;4498679;31;33567;-85
2022/01/30 06:38:56;;;;;;;;;;;;;;;8.79;53.23;98712.66;4507278;31;34082;-86
2022/01/30 06:41:24;;;;;;;;;;;;;;;8.62;53.73;98716.75;4511243;31;34120;-86
2022/01/30 06:43:56;;;;;;;;;;;;;;;8.97;53.16;98720.63;4510382;31;32492;-86
2022/01/30 06:46:25;;;;;;;;;;;;;;;8.98;53.68;98737.91;4509697;31;31823;-85
2022/01/30 06:49:06;;;;;;;;;;;;;;;9.25;52.66;98721.81;4511389;31;33774;-86
2022/01/30 06:51:37;;;;;;;;;;;;;;;8.67;54.63;98756.44;4511609;31;34963;-86
2022/01/30 06:54:09;;;;;;;;;;;;;;;8.53;54.64;98762.28;4514342;31;33520;-86
2022/01/30 06:56:38;;;;;;;;;;;;;;;9.30;52.47;98746.88;4500940;31;32522;-85
2022/01/30 06:59:09;;;;;;;;;;;;;;;9.16;52.09;98746.69;4498010;31;35100;-89
2022/01/30 07:01:45;;;;;;;;;;;;;;;9.05;52.08;98719.84;4498418;31;33939;-86
2022/01/30 07:04:22;;;;;;;;;;;;;;;8.83;52.86;98744.59;4498759;31;34078;-86
2022/01/30 07:06:54;;;;;;;;;;;;;;;8.59;52.88;98722.72;4511516;31;34123;-85
2022/01/30 07:09:22;;;;;;;;;;;;;;;8.49;53.81;98719.16;4504755;31;33596;-84
2022/01/30 07:11:49;;;;;;;;;;;;;;;8.60;52.84;98711.56;4513740;31;34922;-83
2022/01/30 07:14:16;;;;;;;;;;;;;;;8.37;52.25;98711.25;4501608;31;35127;-84
2022/01/30 07:16:43;;;;;;;;;;;;;;;8.71;51.43;98702.25;4498081;31;33389;-84
2022/01/30 07:19:11;;;;;;;;;;;;;;;8.96;50.30;98702.53;4497743;31;33840;-81
2022/01/30 07:21:38;;;;;;;;;;;;;;;8.32;51.74;98712.84;4497838;31;34524;-83
2022/01/30 07:24:05;;;;;;;;;;;;;;;8.60;51.01;98708.97;4497596;31;34115;-83
2022/01/30 07:26:32;;;;;;;;;;;;;;;9.29;49.25;98690.81;4511026;31;33818;-83
2022/01/30 07:29:00;;;;;;;;;;;;;;;8.88;50.10;98699.84;4509906;31;34227;-84
2022/01/30 07:31:27;;;;;;;;;;;;;;;9.07;49.66;98685.41;4514737;31;34528;-85
2022/01/30 07:33:55;;;;;;;;;;;;;;;8.94;49.50;98688.69;4514773;31;34073;-86
2022/01/30 07:36:22;;;;;;;;;;;;;;;8.74;50.01;98694.50;4512134;31;34079;-86
2022/01/30 07:38:49;;;;;;;;;;;;;;;8.85;49.83;98689.47;4508592;31;33788;-86
2022/01/30 07:41:17;;;;;;;;;;;;;;;8.56;50.00;98704.63;4506159;31;33696;-86
2022/01/30 07:43:44;;;;;;;;;;;;;;;8.62;49.26;98690.91;4510433;31;33810;-84
2022/01/30 07:46:11;;;;;;;;;;;;;;;8.89;47.62;98680.03;4515677;31;33114;-84
2022/01/30 07:48:39;;;;;;;;;;;;;;;8.59;47.69;98680.53;4500722;31;32662;-82
2022/01/30 07:51:06;;;;;;;;;;;;;;;8.62;46.69;98704.69;4508309;31;32832;-87
2022/01/30 07:53:34;;;;;;;;;;;;;;;8.53;46.89;98696.81;4499695;31;35028;-86
2022/01/30 07:56:02;;;;;;;;;;;;;;;8.99;45.51;98703.44;4500458;31;34060;-81
2022/01/30 07:58:29;;;;;;;;;;;;;;;9.00;44.88;98684.47;4499211;31;35133;-80
2022/01/30 08:00:56;;;;;;;;;;;;;;;8.83;44.93;98698.06;4501368;31;33955;-81
2022/01/30 08:03:24;;;;;;;;;;;;;;;8.88;44.36;98689.50;4507432;31;34706;-82
2022/01/30 08:05:52;;;;;;;;;;;;;;;9.05;44.05;98715.53;4485619;31;33215;-81
2022/01/30 08:08:19;;;;;;;;;;;;;;;8.84;45.31;98717.91;4499653;31;34927;-81
2022/01/30 08:10:46;;;;;;;;;;;;;;;9.22;45.00;98719.19;4499669;31;35246;-84
2022/01/30 08:13:15;;;;;;;;;;;;;;;8.84;46.78;98736.84;4499703;31;34009;-82
2022/01/30 08:15:44;;;;;;;;;;;;;;;8.71;49.33;98733.25;4499903;31;33952;-82
2022/01/30 08:18:11;;;;;;;;;;;;;;;9.01;49.27;98762.91;4499618;31;34322;-81
2022/01/30 08:20:38;;;;;;;;;;;;;;;8.71;50.32;98778.88;4485194;31;35164;-86
2022/01/30 08:23:12;;;;;;;;;;;;;;;8.99;50.10;98781.00;4499518;31;35024;-78
2022/01/30 08:25:40;;;;;;;;;;;;;;;8.98;49.58;98766.34;4499755;31;33468;-79
2022/01/30 08:28:07;;;;;;;;;;;;;;;8.94;50.42;98766.25;4499450;31;34958;-82
2022/01/30 08:30:34;;;;;;;;;;;;;;;9.20;49.73;98784.69;4499871;31;35295;-82
2022/01/30 08:33:02;;;;;;;;;;;;;;;9.08;50.45;98789.72;4499699;31;33968;-81
2022/01/30 08:35:30;;;;;;;;;;;;;;;9.50;49.31;98785.03;4499809;31;33512;-83
2022/01/30 08:37:58;;;;;;;;;;;;;;;9.07;50.75;98794.03;4484685;31;34111;-82
2022/01/30 08:40:26;;;;;;;;;;;;;;;9.11;50.48;98803.56;4485148;31;34849;-81
2022/01/30 08:42:53;;;;;;;;;;;;;;;8.56;51.75;98787.31;4499505;31;34269;-80
2022/01/30 08:45:21;;;;;;;;;;;;;;;9.03;50.48;98800.00;4512528;31;33051;-81
2022/01/30 08:47:49;;;;;;;;;;;;;;;8.94;50.28;98780.06;4515608;31;34279;-82
2022/01/30 08:50:17;;;;;;;;;;;;;;;8.91;49.98;98782.63;4500918;31;35159;-81
2022/01/30 08:52:44;;;;;;;;;;;;;;;9.20;49.33;98787.28;4515131;31;34826;-81
2022/01/30 08:55:12;;;;;;;;;;;;;;;9.31;47.86;98766.72;4515409;31;33186;-81
2022/01/30 08:57:39;;;;;;;;;;;;;;;8.93;48.13;98774.87;4500619;31;35000;-81
2022/01/30 09:00:07;;;;;;;;;;;;;;;9.01;47.24;98783.59;4515186;31;34220;-81
2022/01/30 09:02:36;;;;;;;;;;;;;;;9.12;46.86;98797.53;4515186;31;35111;-82
2022/01/30 09:05:04;;;;;;;;;;;;;;;8.97;46.13;98787.84;4500716;31;33746;-85
2022/01/30 09:07:32;;;;;;;;;;;;;;;8.88;46.01;98787.75;4511337;31;34789;-85
2022/01/30 09:09:59;;;;;;;;;;;;;;;9.34;45.35;98813.31;4488823;31;34093;-82
2022/01/30 09:12:26;;;;;;;;;;;;;;;9.58;44.57;98774.75;4499192;31;34369;-84
2022/01/30 09:14:54;;;;;;;;;;;;;;;9.83;43.86;98800.91;4499295;31;34253;-84
2022/01/30 09:17:24;;;;;;;;;;;;;;;9.69;43.00;98791.28;4499292;31;33701;-84
2022/01/30 09:19:51;;;;;;;;;;;;;;;9.42;43.66;98798.75;4498975;31;34407;-83
2022/01/30 09:22:19;;;;;;;;;;;;;;;9.84;43.18;98800.06;4484833;31;34921;-85
2022/01/30 09:24:46;;;;;;;;;;;;;;;9.52;43.47;98823.88;4485097;31;33224;-85
2022/01/30 09:27:14;;;;;;;;;;;;;;;9.87;42.43;98836.34;4485131;31;34933;-84
2022/01/30 09:29:41;;;;;;;;;;;;;;;9.25;43.43;98825.28;4500151;31;34096;-86
2022/01/30 09:32:09;;;;;;;;;;;;;;;9.43;42.95;98805.66;4515276;31;34180;-84
2022/01/30 09:34:36;;;;;;;;;;;;;;;9.42;42.24;98846.19;4515021;31;33570;-84
2022/01/30 09:37:04;;;;;;;;;;;;;;;9.17;42.69;98821.75;4515180;31;33540;-84
2022/01/30 09:39:32;;;;;;;;;;;;;;;9.38;42.99;98820.25;4500865;31;34472;-84
2022/01/30 09:41:59;;;;;;;;;;;;;;;10.03;41.68;98827.00;4500237;31;33619;-82
2022/01/30 09:44:27;;;;;;;;;;;;;;;10.14;41.24;98813.28;4508229;31;33086;-80
2022/01/30 09:46:54;;;;;;;;;;;;;;;9.82;41.57;98802.63;4499291;31;34270;-85
2022/01/30 09:49:23;;;;;;;;;;;;;;;10.24;40.54;98811.66;4498810;31;34906;-85
2022/01/30 09:51:50;;;;;;;;;;;;;;;10.10;40.64;98802.88;4499280;31;34006;-83
2022/01/30 09:54:18;;;;;;;;;;;;;;;9.61;42.38;98800.69;4499268;31;34297;-87
2022/01/30 09:56:45;;;;;;;;;;;;;;;9.32;43.36;98799.47;4499051;31;34071;-86
2022/01/30 09:59:12;;;;;;;;;;;;;;;9.07;43.70;98813.84;4499320;31;34884;-86
2022/01/30 10:01:40;;;;;;;;;;;;;;;9.21;43.73;98814.91;4499037;31;34493;-86
2022/01/30 10:04:07;;;;;;;;;;;;;;;9.50;42.80;98825.56;4498624;31;34493;-85
2022/01/30 10:06:50;;;;;;;;;;;;;;;9.30;43.33;98829.66;4498669;31;35033;-79
2022/01/30 10:09:28;;;;;;;;;;;;;;;9.87;42.59;98836.34;4498681;31;34129;-85
2022/01/30 10:12:12;;;;;;;;;;;;;;;9.04;44.10;98843.09;4497620;31;34833;-85
2022/01/30 10:14:53;;;;;;;;;;;;;;;9.46;43.78;98835.00;4498777;31;32813;-84
2022/01/30 10:17:31;;;;;;;;;;;;;;;9.34;44.08;98850.41;4497526;31;34070;-87
2022/01/30 10:20:19;;;;;;;;;;;;;;;9.19;44.15;98845.03;4497196;31;34620;-85
2022/01/30 10:22:48;;;;;;;;;;;;;;;7.81;50.15;98899.59;4498485;31;35010;-85
2022/01/30 10:25:19;;;;;;;;;;;;;;;7.86;51.68;98886.78;4498917;31;34226;-87
2022/01/30 10:27:46;;;;;;;;;;;;;;;7.74;52.06;98898.59;4513376;31;34033;-87
2022/01/30 10:30:19;;;;;;;;;;;;;;;7.43;51.48;98857.56;4502725;31;34730;-86
2022/01/30 10:32:53;;;;;;;;;;;;;;;7.76;50.28;98849.59;4514322;31;34881;-87
2022/01/30 10:35:20;;;;;;;;;;;;;;;8.01;47.67;98850.94;4514458;31;33520;-84
2022/01/30 10:37:48;;;;;;;;;;;;;;;8.07;45.92;98860.47;4514446;31;35092;-89
2022/01/30 10:40:24;;;;;;;;;;;;;;;8.01;47.21;98874.16;4514310;31;34326;-86
2022/01/30 10:42:51;;;;;;;;;;;;;;;8.37;45.69;98873.06;4514225;31;34439;-85
2022/01/30 10:45:19;;;;;;;;;;;;;;;8.47;45.45;98867.25;4512348;31;33281;-86
2022/01/30 10:47:46;;;;;;;;;;;;;;;8.09;45.08;98864.84;4511973;31;35081;-86
2022/01/30 10:50:18;;;;;;;;;;;;;;;8.70;43.05;98873.63;4498251;31;34870;-85
2022/01/30 10:52:53;;;;;;;;;;;;;;;9.19;43.05;98861.41;4497099;31;34308;-86
2022/01/30 10:55:33;;;;;;;;;;;;;;;8.95;43.26;98879.19;4498145;31;33308;-85
2022/01/30 10:58:02;;;;;;;;;;;;;;;9.15;41.30;98849.28;4498322;31;33995;-86
2022/01/30 11:00:35;;;;;;;;;;;;;;;9.08;43.19;98864.69;4499562;31;34521;-85
2022/01/30 11:03:03;;;;;;;;;;;;;;;9.35;40.68;98862.47;4515263;31;33641;-86
2022/01/30 11:05:33;;;;;;;;;;;;;;;8.73;42.15;98862.47;4514885;31;33031;-81
2022/01/30 11:08:00;;;;;;;;;;;;;;;9.26;40.60;98849.44;4515861;31;34274;-80
2022/01/30 11:10:27;;;;;;;;;;;;;;;9.11;40.75;98851.81;4516106;31;34286;-85
2022/01/30 11:13:08;;;;;;;;;;;;;;;9.86;39.49;98861.38;4515740;31;34029;-85
2022/01/30 11:15:37;;;;;;;;;;;;;;;9.68;40.29;98859.44;4515879;31;33694;-85
2022/01/30 11:18:05;;;;;;;;;;;;;;;10.13;39.44;98826.22;4514659;31;35025;-87
2022/01/30 11:20:32;;;;;;;;;;;;;;;9.63;39.63;98852.47;4515872;31;34414;-86
2022/01/30 11:23:05;;;;;;;;;;;;;;;10.06;38.63;98824.44;4514808;31;34215;-87
2022/01/30 11:25:36;;;;;;;;;;;;;;;10.00;38.87;98822.66;4513328;31;33393;-86
2022/01/30 11:28:05;;;;;;;;;;;;;;;10.26;38.06;98837.59;4499800;31;34085;-80
2022/01/30 11:30:50;;;;;;;;;;;;;;;9.70;37.91;98821.50;4499855;31;34406;-86
2022/01/30 11:33:17;;;;;;;;;;;;;;;10.17;35.90;98809.84;4500078;31;35193;-86
2022/01/30 11:35:44;;;;;;;;;;;;;;;9.38;37.40;98840.97;4500178;31;34522;-84
2022/01/30 11:38:12;;;;;;;;;;;;;;;9.24;38.67;98810.63;4505979;31;34224;-86
2022/01/30 11:40:39;;;;;;;;;;;;;;;8.99;40.41;98831.84;4513860;31;35142;-81
2022/01/30 11:43:09;;;;;;;;;;;;;;;8.50;41.77;98825.97;4507203;31;34868;-87
2022/01/30 11:45:37;;;;;;;;;;;;;;;8.77;42.94;98836.69;4499965;31;33499;-87
2022/01/30 11:48:11;;;;;;;;;;;;;;;8.70;43.67;98829.69;4498586;31;34147;-87
2022/01/30 11:50:39;;;;;;;;;;;;;;;8.34;46.42;98827.41;4499993;31;33623;-86
2022/01/30 11:53:07;;;;;;;;;;;;;;;8.62;45.87;98828.72;4500157;31;34649;-87
2022/01/30 11:55:37;;;;;;;;;;;;;;;9.37;42.66;98787.50;4509910;31;33561;-85
2022/01/30 11:58:04;;;;;;;;;;;;;;;9.22;42.55;98778.69;4515730;31;35096;-86
2022/01/30 12:00:36;;;;;;;;;;;;;;;9.64;40.45;98774.84;4514114;31;33801;-87
2022/01/30 12:03:22;;;;;;;;;;;;;;;10.03;40.08;98754.47;4515696;31;34275;-87
2022/01/30 12:05:50;;;;;;;;;;;;;;;10.38;37.18;98768.63;4515660;31;33592;-86
2022/01/30 12:08:36;;;;;;;;;;;;;;;10.04;37.68;98762.28;4515674;31;35005;-81
2022/01/30 12:11:06;;;;;;;;;;;;;;;9.14;37.88;98774.28;4504546;31;34224;-87
2022/01/30 12:13:42;;;;;;;;;;;;;;;9.21;38.04;98739.88;4497498;31;33993;-85
2022/01/30 12:16:28;;;;;;;;;;;;;;;9.70;37.32;98742.97;4499891;31;34195;-84
2022/01/30 12:18:56;;;;;;;;;;;;;;;10.05;36.54;98739.84;4513669;31;34209;-84
2022/01/30 12:21:26;;;;;;;;;;;;;;;9.71;37.36;98758.50;4515594;31;35350;-82
2022/01/30 12:23:53;;;;;;;;;;;;;;;9.43;35.99;98735.78;4511724;31;34445;-83
2022/01/30 12:26:20;;;;;;;;;;;;;;;9.05;36.82;98768.97;4499712;31;33122;-78
2022/01/30 12:28:52;;;;;;;;;;;;;;;9.64;36.17;98753.28;4499848;31;34154;-80
2022/01/30 12:31:22;;;;;;;;;;;;;;;8.67;38.34;98777.09;4498335;31;34356;-83
2022/01/30 12:33:57;;;;;;;;;;;;;;;8.98;38.37;98781.00;4499673;31;34423;-81
2022/01/30 12:36:24;;;;;;;;;;;;;;;9.48;37.03;98757.44;4499607;31;33294;-85
2022/01/30 12:38:52;;;;;;;;;;;;;;;9.16;37.00;98773.44;4499751;31;34858;-84
2022/01/30 12:41:20;;;;;;;;;;;;;;;8.97;37.90;98771.47;4499453;31;34359;-83
2022/01/30 12:43:55;;;;;;;;;;;;;;;8.97;38.86;98769.75;4499256;31;33901;-84
2022/01/30 12:46:23;;;;;;;;;;;;;;;9.26;37.75;98741.66;4507028;31;33354;-84
2022/01/30 12:49:00;;;;;;;;;;;;;;;9.08;38.23;98769.03;4515154;31;33408;-83
2022/01/30 12:51:27;;;;;;;;;;;;;;;9.40;37.67;98746.13;4515038;31;35459;-84
2022/01/30 12:53:55;;;;;;;;;;;;;;;9.50;37.42;98769.50;4513984;31;34166;-85
2022/01/30 12:56:23;;;;;;;;;;;;;;;9.73;36.75;98755.94;4515292;31;34278;-83
2022/01/30 12:58:52;;;;;;;;;;;;;;;8.94;38.04;98761.09;4515115;31;34924;-84
2022/01/30 13:01:23;;;;;;;;;;;;;;;8.92;38.57;98760.22;4505323;31;34393;-84
2022/01/30 13:04:01;;;;;;;;;;;;;;;8.94;39.57;98777.50;4499260;31;34163;-83
2022/01/30 13:06:33;;;;;;;;;;;;;;;9.37;38.61;98761.63;4499361;31;33071;-83
2022/01/30 13:09:00;;;;;;;;;;;;;;;9.19;39.39;98749.34;4499206;31;34012;-84
2022/01/30 13:11:27;;;;;;;;;;;;;;;9.45;37.66;98763.44;4503873;31;35032;-84
2022/01/30 13:14:02;;;;;;;;;;;;;;;9.51;37.32;98747.12;4514931;31;35162;-85
2022/01/30 13:16:31;;;;;;;;;;;;;;;9.92;36.81;98750.06;4513816;31;34529;-85
2022/01/30 13:18:59;;;;;;;;;;;;;;;10.02;36.21;98737.22;4507053;31;33879;-84
2022/01/30 13:21:27;;;;;;;;;;;;;;;9.87;36.07;98737.94;4512099;31;34209;-85
2022/01/30 13:23:54;;;;;;;;;;;;;;;9.62;36.34;98739.44;4515022;31;34137;-85
2022/01/30 13:26:35;;;;;;;;;;;;;;;9.47;36.97;98735.87;4514815;31;32888;-87
2022/01/30 13:29:07;;;;;;;;;;;;;;;9.38;36.18;98727.97;4499098;31;33995;-84
2022/01/30 13:31:35;;;;;;;;;;;;;;;10.09;34.73;98728.63;4499230;31;34389;-83
2022/01/30 13:34:22;;;;;;;;;;;;;;;10.36;34.40;98746.13;4513329;31;33985;-84
2022/01/30 13:36:54;;;;;;;;;;;;;;;9.85;35.37;98752.59;4514150;31;34136;-84
2022/01/30 13:39:27;;;;;;;;;;;;;;;9.80;35.11;98747.38;4513967;31;34272;-84
2022/01/30 13:44:53;;;;;;;;;;;;;;;9.87;35.56;98784.56;4483451;31;34943;-78
2022/01/30 13:47:21;;;;;;;;;;;;;;;9.27;36.06;98791.66;4499008;31;34165;-84
2022/01/30 13:49:49;;;;;;;;;;;;;;;9.56;35.78;98792.00;4497832;31;34768;-85
2022/01/30 13:52:18;;;;;;;;;;;;;;;9.01;37.13;98806.84;4509473;31;33932;-84
2022/01/30 13:55:01;;;;;;;;;;;;;;;8.80;37.70;98811.75;4510150;31;33319;-85
2022/01/30 13:57:33;;;;;;;;;;;;;;;8.66;38.15;98842.56;4502789;31;33420;-80
2022/01/30 14:00:07;;;;;;;;;;;;;;;8.33;39.44;98815.31;4498481;31;33925;-84